EFW2591 LIPX-EGKK
Flight info
| Callsign | EFW2591 |
|---|---|
| Flight time | 1h 44m |
| Altitude | 36000 |
| Route | OTZOM Y480 UPXUF L612 ADOSA DCT BORMI DCT RESIA DCT ELMUR DCT RIPUS DCT DITON DCT HOC DCT LUL DCT RLP DCT ROTSI DCT KOTUN DCT NINAL DCT KESAX DCT KUNAV |
| Aircraft | A320/M-SDE3FGHIRWY/LB1 |
Departure
| Time | 2026-05-06 20:00 |
|---|---|
| Airport | Verona Villafranca Valerio Catullo Airport (LIPX) |
Arrival
| Time | 2026-05-06 21:44 |
|---|---|
| Airport | London Gatwick Airport (EGKK) |
| Time | Latitude | Longitude | Altitude | Speed | Heading |
|---|---|---|---|---|---|
| 2026-05-06 19:04 | 45.40270 | 10.90373 | 243 ft | 0 kts | 224° |
| 2026-05-06 19:50 | 45.40278 | 10.90384 | 242 ft | 1 kts | 224° |
| 2026-05-06 19:50 | 45.40278 | 10.90385 | 242 ft | 0 kts | 224° |
| 2026-05-06 19:54 | 45.40275 | 10.90381 | 242 ft | 2 kts | 225° |
| 2026-05-06 19:54 | 45.40258 | 10.90354 | 242 ft | 5 kts | 232° |
| 2026-05-06 19:55 | 45.40269 | 10.90307 | 242 ft | 6 kts | 316° |
| 2026-05-06 19:55 | 45.40294 | 10.90275 | 243 ft | 5 kts | 318° |
| 2026-05-06 19:55 | 45.40316 | 10.90245 | 244 ft | 4 kts | 310° |
| 2026-05-06 19:55 | 45.40329 | 10.90210 | 245 ft | 4 kts | 296° |
| 2026-05-06 19:56 | 45.40340 | 10.90178 | 246 ft | 0 kts | 295° |
| 2026-05-06 19:58 | 45.40350 | 10.90146 | 246 ft | 10 kts | 295° |
| 2026-05-06 19:58 | 45.40377 | 10.90055 | 247 ft | 9 kts | 275° |
| 2026-05-06 19:58 | 45.40350 | 10.89986 | 248 ft | 0 kts | 224° |
| 2026-05-06 19:59 | 45.40316 | 10.89939 | 249 ft | 31 kts | 224° |
| 2026-05-06 19:59 | 45.39999 | 10.89480 | 246 ft | 96 kts | 225° |
| 2026-05-06 19:59 | 45.39406 | 10.88619 | 240 ft | 145 kts | 225° |
| 2026-05-06 19:59 | 45.38631 | 10.87474 | 477 ft | 163 kts | 225° |
| 2026-05-06 20:00 | 45.37850 | 10.86311 | 1017 ft | 164 kts | 225° |
| 2026-05-06 20:00 | 45.37055 | 10.85113 | 1455 ft | 172 kts | 224° |
| 2026-05-06 20:00 | 45.36252 | 10.83683 | 1633 ft | 198 kts | 238° |
| 2026-05-06 20:00 | 45.35657 | 10.81781 | 1827 ft | 223 kts | 246° |
| 2026-05-06 20:01 | 45.35044 | 10.79655 | 2127 ft | 247 kts | 246° |
| 2026-05-06 20:01 | 45.34342 | 10.77309 | 2749 ft | 258 kts | 239° |
| 2026-05-06 20:01 | 45.33113 | 10.75577 | 3626 ft | 256 kts | 205° |
| 2026-05-06 20:01 | 45.31376 | 10.75189 | 4505 ft | 259 kts | 171° |
| 2026-05-06 20:02 | 45.29761 | 10.76336 | 5329 ft | 269 kts | 137° |
| 2026-05-06 20:02 | 45.28841 | 10.78672 | 6116 ft | 281 kts | 103° |
| 2026-05-06 20:02 | 45.28911 | 10.81475 | 6846 ft | 291 kts | 78° |
| 2026-05-06 20:02 | 45.29528 | 10.84231 | 7623 ft | 295 kts | 72° |
| 2026-05-06 20:03 | 45.30214 | 10.86996 | 8401 ft | 299 kts | 72° |
| 2026-05-06 20:03 | 45.30911 | 10.89804 | 9144 ft | 303 kts | 72° |
| 2026-05-06 20:03 | 45.31597 | 10.92617 | 9898 ft | 307 kts | 75° |
| 2026-05-06 20:03 | 45.32099 | 10.95574 | 10581 ft | 309 kts | 82° |
| 2026-05-06 20:04 | 45.32437 | 10.98605 | 11290 ft | 312 kts | 85° |
| 2026-05-06 20:04 | 45.32709 | 11.01676 | 11857 ft | 315 kts | 86° |
| 2026-05-06 20:04 | 45.33096 | 11.04752 | 12563 ft | 321 kts | 73° |
| 2026-05-06 20:04 | 45.34232 | 11.07511 | 13231 ft | 330 kts | 47° |
| 2026-05-06 20:05 | 45.36127 | 11.09389 | 13758 ft | 342 kts | 21° |
| 2026-05-06 20:05 | 45.38509 | 11.09975 | 13884 ft | 358 kts | 352° |
| 2026-05-06 20:05 | 45.41002 | 11.09287 | 14022 ft | 375 kts | 345° |
| 2026-05-06 20:05 | 45.43607 | 11.08896 | 14452 ft | 388 kts | 358° |
| 2026-05-06 20:06 | 45.46317 | 11.09349 | 15047 ft | 397 kts | 12° |
| 2026-05-06 20:06 | 45.48938 | 11.10647 | 15656 ft | 402 kts | 25° |
| 2026-05-06 20:06 | 45.51492 | 11.12318 | 16250 ft | 405 kts | 18° |
| 2026-05-06 20:06 | 45.54230 | 11.13250 | 16853 ft | 406 kts | 2° |
| 2026-05-06 20:07 | 45.57024 | 11.13009 | 17422 ft | 400 kts | 341° |
| 2026-05-06 20:07 | 45.59551 | 11.11496 | 18043 ft | 392 kts | 321° |
| 2026-05-06 20:07 | 45.61735 | 11.09191 | 18628 ft | 392 kts | 318° |
| 2026-05-06 20:07 | 45.64035 | 11.07031 | 19227 ft | 401 kts | 324° |
| 2026-05-06 20:08 | 45.66599 | 11.05336 | 19786 ft | 413 kts | 337° |
| 2026-05-06 20:08 | 45.69439 | 11.04669 | 20360 ft | 429 kts | 357° |
| 2026-05-06 20:08 | 45.72418 | 11.05321 | 20923 ft | 439 kts | 11° |
| 2026-05-06 20:08 | 45.75400 | 11.06396 | 21433 ft | 444 kts | 11° |
| 2026-05-06 20:09 | 45.78402 | 11.07516 | 22007 ft | 448 kts | 12° |
| 2026-05-06 20:09 | 45.81431 | 11.08653 | 22502 ft | 452 kts | 11° |
| 2026-05-06 20:09 | 45.84492 | 11.09787 | 23040 ft | 456 kts | 11° |
| 2026-05-06 20:09 | 45.87585 | 11.10914 | 23522 ft | 460 kts | 11° |
| 2026-05-06 20:10 | 45.90690 | 11.12031 | 23957 ft | 464 kts | 11° |
| 2026-05-06 20:10 | 45.93801 | 11.13093 | 24408 ft | 466 kts | 6° |
| 2026-05-06 20:10 | 45.97015 | 11.13409 | 24853 ft | 462 kts | 351° |
| 2026-05-06 20:10 | 46.00163 | 11.12724 | 25302 ft | 455 kts | 337° |
| 2026-05-06 20:11 | 46.03090 | 11.11122 | 25732 ft | 446 kts | 324° |
| 2026-05-06 20:11 | 46.05667 | 11.08732 | 26154 ft | 436 kts | 312° |
| 2026-05-06 20:11 | 46.07794 | 11.05707 | 26579 ft | 426 kts | 300° |
| 2026-05-06 20:11 | 46.09421 | 11.02212 | 26994 ft | 418 kts | 291° |
| 2026-05-06 20:12 | 46.10864 | 10.98570 | 27437 ft | 420 kts | 291° |
| 2026-05-06 20:12 | 46.12318 | 10.94896 | 27859 ft | 423 kts | 291° |
| 2026-05-06 20:12 | 46.13761 | 10.91263 | 28364 ft | 423 kts | 291° |
| 2026-05-06 20:12 | 46.15223 | 10.87600 | 28974 ft | 421 kts | 291° |
| 2026-05-06 20:13 | 46.16682 | 10.83945 | 29581 ft | 419 kts | 290° |
| 2026-05-06 20:13 | 46.18129 | 10.80313 | 30170 ft | 417 kts | 290° |
| 2026-05-06 20:13 | 46.19571 | 10.76689 | 30648 ft | 416 kts | 290° |
| 2026-05-06 20:13 | 46.21007 | 10.73066 | 31089 ft | 415 kts | 290° |
| 2026-05-06 20:14 | 46.22435 | 10.69450 | 31559 ft | 414 kts | 290° |
| 2026-05-06 20:14 | 46.23857 | 10.65839 | 32020 ft | 413 kts | 290° |
| 2026-05-06 20:14 | 46.25271 | 10.62236 | 32449 ft | 412 kts | 290° |
| 2026-05-06 20:14 | 46.26682 | 10.58635 | 32863 ft | 412 kts | 290° |
| 2026-05-06 20:15 | 46.28077 | 10.55082 | 33324 ft | 411 kts | 290° |
| 2026-05-06 20:15 | 46.29490 | 10.51491 | 33778 ft | 411 kts | 290° |
| 2026-05-06 20:15 | 46.30900 | 10.47907 | 34185 ft | 410 kts | 291° |
| 2026-05-06 20:15 | 46.32308 | 10.44314 | 34545 ft | 410 kts | 291° |
| 2026-05-06 20:16 | 46.33716 | 10.40706 | 34828 ft | 412 kts | 291° |
| 2026-05-06 20:16 | 46.35123 | 10.37101 | 35154 ft | 412 kts | 292° |
| 2026-05-06 20:16 | 46.36531 | 10.33490 | 35474 ft | 412 kts | 292° |
| 2026-05-06 20:16 | 46.37937 | 10.29877 | 35743 ft | 413 kts | 292° |
| 2026-05-06 20:17 | 46.39333 | 10.26296 | 35926 ft | 414 kts | 292° |
| 2026-05-06 20:17 | 46.40757 | 10.22631 | 35967 ft | 422 kts | 292° |
| 2026-05-06 20:17 | 46.43671 | 10.15106 | 35970 ft | 431 kts | 292° |
| 2026-05-06 20:18 | 46.46616 | 10.07509 | 35982 ft | 433 kts | 293° |
| 2026-05-06 20:18 | 46.50234 | 10.00409 | 35975 ft | 443 kts | 305° |
| 2026-05-06 20:19 | 46.54302 | 9.93749 | 35977 ft | 444 kts | 305° |
| 2026-05-06 20:19 | 46.58391 | 9.86999 | 35977 ft | 445 kts | 305° |
| 2026-05-06 20:20 | 46.62470 | 9.80232 | 35976 ft | 445 kts | 305° |
| 2026-05-06 20:20 | 46.66534 | 9.73513 | 35996 ft | 446 kts | 305° |
| 2026-05-06 20:21 | 46.70625 | 9.66732 | 35980 ft | 445 kts | 305° |
| 2026-05-06 20:21 | 46.74693 | 9.59956 | 35961 ft | 445 kts | 305° |
| 2026-05-06 20:22 | 46.78765 | 9.53148 | 35955 ft | 445 kts | 306° |
| 2026-05-06 20:22 | 46.82821 | 9.46382 | 35938 ft | 446 kts | 306° |
| 2026-05-06 20:23 | 46.86910 | 9.39541 | 35959 ft | 447 kts | 306° |
| 2026-05-06 20:23 | 46.90993 | 9.32673 | 35941 ft | 447 kts | 306° |
| 2026-05-06 20:24 | 46.95073 | 9.25786 | 35941 ft | 448 kts | 305° |
| 2026-05-06 20:24 | 46.99154 | 9.18873 | 35951 ft | 449 kts | 305° |
| 2026-05-06 20:25 | 47.03215 | 9.11995 | 35956 ft | 449 kts | 306° |
| 2026-05-06 20:25 | 47.07301 | 9.05055 | 35985 ft | 450 kts | 306° |
| 2026-05-06 20:26 | 47.11391 | 8.98110 | 35972 ft | 449 kts | 306° |
| 2026-05-06 20:26 | 47.15256 | 8.90957 | 35967 ft | 443 kts | 296° |
| 2026-05-06 20:27 | 47.17705 | 8.82851 | 35959 ft | 435 kts | 285° |
| 2026-05-06 20:27 | 47.19819 | 8.74501 | 35958 ft | 436 kts | 286° |
| 2026-05-06 20:28 | 47.21951 | 8.66156 | 35971 ft | 436 kts | 286° |
| 2026-05-06 20:28 | 47.23998 | 8.58106 | 35965 ft | 437 kts | 286° |
| 2026-05-06 20:29 | 47.26114 | 8.49733 | 35958 ft | 437 kts | 286° |
| 2026-05-06 20:29 | 47.28208 | 8.41391 | 35956 ft | 437 kts | 286° |
| 2026-05-06 20:30 | 47.31381 | 8.28766 | 35976 ft | 438 kts | 287° |
| 2026-05-06 20:31 | 47.33482 | 8.20321 | 35966 ft | 439 kts | 286° |
| 2026-05-06 20:31 | 47.35561 | 8.11919 | 35960 ft | 440 kts | 286° |
| 2026-05-06 20:32 | 47.37654 | 8.03438 | 35954 ft | 440 kts | 286° |
| 2026-05-06 20:32 | 47.39740 | 7.94945 | 35958 ft | 440 kts | 286° |
| 2026-05-06 20:33 | 47.41824 | 7.86450 | 35961 ft | 440 kts | 286° |
| 2026-05-06 20:33 | 47.43885 | 7.77994 | 35961 ft | 440 kts | 286° |
| 2026-05-06 20:34 | 47.45947 | 7.69473 | 35956 ft | 440 kts | 286° |
| 2026-05-06 20:34 | 47.47636 | 7.60821 | 35957 ft | 438 kts | 281° |
| 2026-05-06 20:35 | 47.49096 | 7.52088 | 35976 ft | 438 kts | 280° |
| 2026-05-06 20:35 | 47.50542 | 7.43337 | 35960 ft | 438 kts | 281° |
| 2026-05-06 20:36 | 47.51978 | 7.34626 | 35957 ft | 439 kts | 281° |
| 2026-05-06 20:36 | 47.53433 | 7.25850 | 35957 ft | 439 kts | 281° |
| 2026-05-06 20:37 | 47.54880 | 7.17059 | 35946 ft | 440 kts | 281° |
| 2026-05-06 20:37 | 47.56317 | 7.08262 | 35959 ft | 440 kts | 281° |
| 2026-05-06 20:38 | 47.57732 | 6.99516 | 35959 ft | 440 kts | 281° |
| 2026-05-06 20:38 | 47.59152 | 6.90696 | 35956 ft | 440 kts | 281° |
| 2026-05-06 20:39 | 47.60577 | 6.81878 | 35954 ft | 440 kts | 281° |
| 2026-05-06 20:39 | 47.61996 | 6.73056 | 35954 ft | 441 kts | 281° |
| 2026-05-06 20:40 | 47.63393 | 6.64268 | 35954 ft | 441 kts | 281° |
| 2026-05-06 20:40 | 47.64792 | 6.55416 | 35958 ft | 441 kts | 281° |
| 2026-05-06 20:41 | 47.66184 | 6.46565 | 35958 ft | 441 kts | 281° |
| 2026-05-06 20:41 | 47.67564 | 6.37706 | 35956 ft | 441 kts | 281° |
| 2026-05-06 20:42 | 47.68949 | 6.28832 | 35972 ft | 441 kts | 282° |
| 2026-05-06 20:42 | 47.70658 | 6.20134 | 35960 ft | 443 kts | 286° |
| 2026-05-06 20:43 | 47.72618 | 6.11456 | 35957 ft | 443 kts | 287° |
| 2026-05-06 20:43 | 47.74549 | 6.02754 | 35953 ft | 443 kts | 286° |
| 2026-05-06 20:44 | 47.76401 | 5.94011 | 35945 ft | 443 kts | 285° |
| 2026-05-06 20:44 | 47.78213 | 5.85314 | 35957 ft | 444 kts | 285° |
| 2026-05-06 20:45 | 47.80036 | 5.76545 | 35954 ft | 444 kts | 285° |
| 2026-05-06 20:45 | 47.81855 | 5.67770 | 35958 ft | 444 kts | 285° |
| 2026-05-06 20:46 | 47.83668 | 5.58984 | 35956 ft | 444 kts | 285° |
| 2026-05-06 20:46 | 47.85460 | 5.50252 | 35960 ft | 444 kts | 285° |
| 2026-05-06 20:47 | 47.87264 | 5.41468 | 35964 ft | 444 kts | 285° |
| 2026-05-06 20:47 | 47.89067 | 5.32666 | 35966 ft | 444 kts | 285° |
| 2026-05-06 20:48 | 47.91477 | 5.24224 | 35964 ft | 446 kts | 301° |
| 2026-05-06 20:48 | 47.95415 | 5.17064 | 35964 ft | 448 kts | 311° |
| 2026-05-06 20:49 | 47.99574 | 5.10222 | 35956 ft | 448 kts | 310° |
| 2026-05-06 20:49 | 48.03750 | 5.03309 | 35967 ft | 448 kts | 310° |
| 2026-05-06 20:50 | 48.07915 | 4.96396 | 35969 ft | 448 kts | 310° |
| 2026-05-06 20:50 | 48.12084 | 4.89472 | 35974 ft | 448 kts | 311° |
| 2026-05-06 20:51 | 48.16225 | 4.82589 | 35968 ft | 448 kts | 310° |
| 2026-05-06 20:51 | 48.20392 | 4.75644 | 35964 ft | 448 kts | 310° |
| 2026-05-06 20:52 | 48.24550 | 4.68678 | 35967 ft | 448 kts | 310° |
| 2026-05-06 20:52 | 48.28698 | 4.61699 | 35972 ft | 448 kts | 310° |
| 2026-05-06 20:53 | 48.32814 | 4.54761 | 35972 ft | 448 kts | 310° |
| 2026-05-06 20:53 | 48.36961 | 4.47782 | 35973 ft | 447 kts | 310° |
| 2026-05-06 20:54 | 48.41095 | 4.40789 | 35972 ft | 447 kts | 310° |
| 2026-05-06 20:54 | 48.45223 | 4.33783 | 35973 ft | 447 kts | 310° |
| 2026-05-06 20:55 | 48.49314 | 4.26815 | 35978 ft | 447 kts | 310° |
| 2026-05-06 20:55 | 48.53428 | 4.19801 | 35981 ft | 446 kts | 310° |
| 2026-05-06 20:56 | 48.57540 | 4.12770 | 35986 ft | 446 kts | 310° |
| 2026-05-06 20:56 | 48.61642 | 4.05741 | 35989 ft | 446 kts | 310° |
| 2026-05-06 20:57 | 48.65743 | 3.98689 | 35981 ft | 446 kts | 310° |
| 2026-05-06 20:57 | 48.69809 | 3.91672 | 35986 ft | 446 kts | 310° |
| 2026-05-06 20:58 | 48.73941 | 3.84664 | 35975 ft | 447 kts | 313° |
| 2026-05-06 20:58 | 48.78354 | 3.78026 | 35973 ft | 447 kts | 315° |
| 2026-05-06 20:59 | 48.82870 | 3.71545 | 35969 ft | 447 kts | 315° |
| 2026-05-06 20:59 | 48.87347 | 3.64996 | 35980 ft | 447 kts | 315° |
| 2026-05-06 21:00 | 48.91734 | 3.58404 | 35975 ft | 447 kts | 314° |
| 2026-05-06 21:00 | 48.96143 | 3.51735 | 35982 ft | 447 kts | 314° |
| 2026-05-06 21:01 | 49.00531 | 3.45121 | 35986 ft | 446 kts | 314° |
| 2026-05-06 21:01 | 49.04942 | 3.38474 | 35984 ft | 446 kts | 314° |
| 2026-05-06 21:02 | 49.09349 | 3.31820 | 35986 ft | 445 kts | 314° |
| 2026-05-06 21:02 | 49.13708 | 3.25204 | 35989 ft | 445 kts | 314° |
| 2026-05-06 21:03 | 49.18100 | 3.18517 | 35997 ft | 445 kts | 314° |
| 2026-05-06 21:03 | 49.22480 | 3.11831 | 35991 ft | 445 kts | 314° |
| 2026-05-06 21:04 | 49.26856 | 3.05139 | 35994 ft | 445 kts | 314° |
| 2026-05-06 21:04 | 49.31201 | 2.98488 | 35994 ft | 444 kts | 314° |
| 2026-05-06 21:05 | 49.35568 | 2.91776 | 36002 ft | 444 kts | 314° |
| 2026-05-06 21:05 | 49.39932 | 2.85058 | 35997 ft | 444 kts | 314° |
| 2026-05-06 21:06 | 49.44263 | 2.78374 | 35989 ft | 444 kts | 314° |
| 2026-05-06 21:06 | 49.48610 | 2.71640 | 35996 ft | 444 kts | 314° |
| 2026-05-06 21:07 | 49.52956 | 2.64874 | 36004 ft | 444 kts | 314° |
| 2026-05-06 21:07 | 49.57287 | 2.58130 | 36002 ft | 443 kts | 314° |
| 2026-05-06 21:08 | 49.61567 | 2.51357 | 36010 ft | 442 kts | 312° |
| 2026-05-06 21:08 | 49.65579 | 2.44264 | 36007 ft | 441 kts | 309° |
| 2026-05-06 21:09 | 49.69468 | 2.36940 | 36007 ft | 441 kts | 309° |
| 2026-05-06 21:09 | 49.73378 | 2.29630 | 36004 ft | 441 kts | 309° |
| 2026-05-06 21:10 | 49.77333 | 2.22399 | 36008 ft | 440 kts | 310° |
| 2026-05-06 21:10 | 49.81300 | 2.15177 | 36013 ft | 440 kts | 310° |
| 2026-05-06 21:11 | 49.85224 | 2.08002 | 36006 ft | 439 kts | 310° |
| 2026-05-06 21:11 | 49.89151 | 2.00755 | 36001 ft | 439 kts | 310° |
| 2026-05-06 21:11 | 49.91117 | 1.97124 | 35754 ft | 439 kts | 310° |
| 2026-05-06 21:12 | 49.93087 | 1.93481 | 35003 ft | 443 kts | 310° |
| 2026-05-06 21:12 | 49.95073 | 1.89795 | 34255 ft | 446 kts | 310° |
| 2026-05-06 21:12 | 49.97072 | 1.86077 | 33366 ft | 450 kts | 310° |
| 2026-05-06 21:12 | 49.99081 | 1.82343 | 32585 ft | 450 kts | 310° |
| 2026-05-06 21:13 | 50.01041 | 1.78695 | 32182 ft | 443 kts | 309° |
| 2026-05-06 21:13 | 50.03008 | 1.75024 | 31650 ft | 440 kts | 309° |
| 2026-05-06 21:13 | 50.04961 | 1.71376 | 31129 ft | 437 kts | 309° |
| 2026-05-06 21:13 | 50.06929 | 1.67792 | 30598 ft | 435 kts | 313° |
| 2026-05-06 21:14 | 50.08954 | 1.64877 | 30119 ft | 434 kts | 318° |
| 2026-05-06 21:14 | 50.11066 | 1.62032 | 29570 ft | 432 kts | 318° |
| 2026-05-06 21:14 | 50.13149 | 1.59213 | 29088 ft | 429 kts | 318° |
| 2026-05-06 21:14 | 50.15008 | 1.56689 | 28650 ft | 426 kts | 318° |
| 2026-05-06 21:15 | 50.16915 | 1.54093 | 28204 ft | 423 kts | 318° |
| 2026-05-06 21:15 | 50.18141 | 1.52424 | 27924 ft | 421 kts | 318° |
| 2026-05-06 21:15 | 50.20026 | 1.49856 | 27494 ft | 417 kts | 317° |
| 2026-05-06 21:15 | 50.21600 | 1.47710 | 27127 ft | 415 kts | 317° |
| 2026-05-06 21:16 | 50.23259 | 1.45447 | 26755 ft | 412 kts | 317° |
| 2026-05-06 21:16 | 50.24703 | 1.43475 | 26432 ft | 410 kts | 317° |
| 2026-05-06 21:16 | 50.26233 | 1.41382 | 26088 ft | 408 kts | 317° |
| 2026-05-06 21:16 | 50.27727 | 1.39338 | 25757 ft | 406 kts | 317° |
| 2026-05-06 21:17 | 50.28817 | 1.37848 | 25527 ft | 404 kts | 318° |
| 2026-05-06 21:17 | 50.30180 | 1.35980 | 25234 ft | 402 kts | 318° |
| 2026-05-06 21:17 | 50.31335 | 1.34398 | 24985 ft | 401 kts | 318° |
| 2026-05-06 21:17 | 50.32255 | 1.33136 | 24788 ft | 400 kts | 318° |
| 2026-05-06 21:18 | 50.33217 | 1.31817 | 24586 ft | 399 kts | 318° |
| 2026-05-06 21:18 | 50.34426 | 1.30158 | 24329 ft | 398 kts | 317° |
| 2026-05-06 21:18 | 50.35560 | 1.28600 | 24092 ft | 397 kts | 317° |
| 2026-05-06 21:18 | 50.36440 | 1.27387 | 23895 ft | 396 kts | 317° |
| 2026-05-06 21:19 | 50.37631 | 1.25619 | 23632 ft | 395 kts | 310° |
| 2026-05-06 21:19 | 50.38883 | 1.22768 | 23210 ft | 392 kts | 295° |
| 2026-05-06 21:19 | 50.39331 | 1.21068 | 22980 ft | 391 kts | 287° |
| 2026-05-06 21:19 | 50.39664 | 1.18812 | 22695 ft | 390 kts | 278° |
| 2026-05-06 21:20 | 50.39793 | 1.17257 | 22503 ft | 389 kts | 277° |
| 2026-05-06 21:20 | 50.39912 | 1.15907 | 22335 ft | 389 kts | 279° |
| 2026-05-06 21:20 | 50.40127 | 1.14383 | 22144 ft | 389 kts | 287° |
| 2026-05-06 21:20 | 50.40455 | 1.13021 | 21965 ft | 388 kts | 295° |
| 2026-05-06 21:21 | 50.40898 | 1.11764 | 21793 ft | 388 kts | 304° |
| 2026-05-06 21:21 | 50.41474 | 1.10584 | 21618 ft | 388 kts | 312° |
| 2026-05-06 21:21 | 50.42336 | 1.09322 | 21405 ft | 389 kts | 322° |
| 2026-05-06 21:21 | 50.43436 | 1.08249 | 21169 ft | 390 kts | 334° |
| 2026-05-06 21:22 | 50.46011 | 1.06985 | 20686 ft | 391 kts | 349° |
| 2026-05-06 21:22 | 50.47082 | 1.06761 | 20509 ft | 391 kts | 354° |
| 2026-05-06 21:22 | 50.48126 | 1.06681 | 20350 ft | 391 kts | 359° |
| 2026-05-06 21:22 | 50.49222 | 1.06696 | 20188 ft | 389 kts | 359° |
| 2026-05-06 21:23 | 50.51040 | 1.06533 | 19897 ft | 386 kts | 348° |
| 2026-05-06 21:23 | 50.52537 | 1.05811 | 19651 ft | 381 kts | 333° |
| 2026-05-06 21:23 | 50.54165 | 1.04217 | 19345 ft | 377 kts | 319° |
| 2026-05-06 21:23 | 50.55230 | 1.02672 | 19116 ft | 375 kts | 312° |
| 2026-05-06 21:24 | 50.56870 | 0.99562 | 18711 ft | 371 kts | 306° |
| 2026-05-06 21:24 | 50.58336 | 0.96341 | 18312 ft | 368 kts | 304° |
| 2026-05-06 21:24 | 50.59719 | 0.93329 | 17892 ft | 365 kts | 306° |
| 2026-05-06 21:24 | 50.60982 | 0.90762 | 17641 ft | 358 kts | 308° |
| 2026-05-06 21:25 | 50.62264 | 0.88336 | 17394 ft | 353 kts | 310° |
| 2026-05-06 21:25 | 50.63609 | 0.85938 | 17048 ft | 350 kts | 311° |
| 2026-05-06 21:25 | 50.65070 | 0.83441 | 16639 ft | 348 kts | 313° |
| 2026-05-06 21:25 | 50.66689 | 0.80740 | 16190 ft | 347 kts | 313° |
| 2026-05-06 21:26 | 50.68326 | 0.77953 | 15659 ft | 347 kts | 311° |
| 2026-05-06 21:26 | 50.69901 | 0.75048 | 15017 ft | 350 kts | 309° |
| 2026-05-06 21:26 | 50.71433 | 0.72057 | 14524 ft | 349 kts | 308° |
| 2026-05-06 21:26 | 50.72927 | 0.69066 | 14045 ft | 343 kts | 308° |
| 2026-05-06 21:27 | 50.74392 | 0.66123 | 13155 ft | 339 kts | 308° |
| 2026-05-06 21:27 | 50.75834 | 0.63234 | 12513 ft | 330 kts | 308° |
| 2026-05-06 21:27 | 50.77238 | 0.60441 | 11927 ft | 320 kts | 308° |
| 2026-05-06 21:27 | 50.78598 | 0.57750 | 11401 ft | 318 kts | 308° |
| 2026-05-06 21:28 | 50.79960 | 0.55060 | 11240 ft | 309 kts | 308° |
| 2026-05-06 21:28 | 50.81282 | 0.52456 | 11118 ft | 299 kts | 308° |
| 2026-05-06 21:28 | 50.82569 | 0.49923 | 10970 ft | 291 kts | 309° |
| 2026-05-06 21:28 | 50.83822 | 0.47458 | 10586 ft | 285 kts | 308° |
| 2026-05-06 21:29 | 50.85055 | 0.45026 | 10177 ft | 283 kts | 308° |
| 2026-05-06 21:29 | 50.86281 | 0.42603 | 9762 ft | 281 kts | 308° |
| 2026-05-06 21:29 | 50.87498 | 0.40198 | 9339 ft | 279 kts | 308° |
| 2026-05-06 21:29 | 50.88702 | 0.37813 | 8941 ft | 282 kts | 308° |
| 2026-05-06 21:30 | 50.89926 | 0.35385 | 8613 ft | 281 kts | 308° |
| 2026-05-06 21:30 | 50.91132 | 0.32984 | 8163 ft | 276 kts | 308° |
| 2026-05-06 21:30 | 50.92323 | 0.30619 | 7749 ft | 274 kts | 308° |
| 2026-05-06 21:30 | 50.93507 | 0.28274 | 7352 ft | 272 kts | 308° |
| 2026-05-06 21:31 | 50.94682 | 0.25940 | 6972 ft | 270 kts | 308° |
| 2026-05-06 21:31 | 50.95846 | 0.23601 | 6482 ft | 269 kts | 308° |
| 2026-05-06 21:31 | 50.96977 | 0.21295 | 5977 ft | 268 kts | 308° |
| 2026-05-06 21:31 | 50.98113 | 0.18979 | 5481 ft | 265 kts | 308° |
| 2026-05-06 21:32 | 50.99237 | 0.16686 | 5011 ft | 262 kts | 308° |
| 2026-05-06 21:32 | 51.01318 | 0.11922 | 4217 ft | 264 kts | 294° |
| 2026-05-06 21:32 | 51.01817 | 0.09129 | 3896 ft | 264 kts | 278° |
| 2026-05-06 21:33 | 51.01943 | 0.06256 | 3807 ft | 260 kts | 274° |
| 2026-05-06 21:33 | 51.02064 | 0.03392 | 3747 ft | 260 kts | 275° |
| 2026-05-06 21:33 | 51.02191 | 0.00528 | 3685 ft | 260 kts | 275° |
| 2026-05-06 21:33 | 51.02318 | -0.02338 | 3634 ft | 260 kts | 275° |
| 2026-05-06 21:34 | 51.02442 | -0.05205 | 3577 ft | 260 kts | 275° |
| 2026-05-06 21:34 | 51.02562 | -0.08036 | 3516 ft | 260 kts | 275° |
| 2026-05-06 21:34 | 51.02682 | -0.10906 | 3457 ft | 260 kts | 275° |
| 2026-05-06 21:34 | 51.02802 | -0.13771 | 3394 ft | 260 kts | 275° |
| 2026-05-06 21:35 | 51.02924 | -0.16637 | 3333 ft | 260 kts | 275° |
| 2026-05-06 21:35 | 51.03046 | -0.19499 | 3280 ft | 260 kts | 275° |
| 2026-05-06 21:35 | 51.03167 | -0.22363 | 3221 ft | 260 kts | 275° |
| 2026-05-06 21:35 | 51.03285 | -0.25226 | 3119 ft | 259 kts | 275° |
| 2026-05-06 21:36 | 51.03398 | -0.28042 | 3003 ft | 259 kts | 275° |
| 2026-05-06 21:36 | 51.03510 | -0.30898 | 3005 ft | 260 kts | 275° |
| 2026-05-06 21:36 | 51.03623 | -0.33761 | 3006 ft | 260 kts | 275° |
| 2026-05-06 21:36 | 51.03737 | -0.36628 | 3007 ft | 260 kts | 275° |
| 2026-05-06 21:37 | 51.03850 | -0.39494 | 3004 ft | 260 kts | 275° |
| 2026-05-06 21:37 | 51.03963 | -0.42358 | 3007 ft | 260 kts | 275° |
| 2026-05-06 21:37 | 51.04076 | -0.45223 | 3006 ft | 260 kts | 275° |
| 2026-05-06 21:37 | 51.04189 | -0.48081 | 3004 ft | 256 kts | 275° |
| 2026-05-06 21:38 | 51.04302 | -0.50827 | 3003 ft | 242 kts | 276° |
| 2026-05-06 21:38 | 51.04779 | -0.53241 | 2999 ft | 222 kts | 310° |
| 2026-05-06 21:38 | 51.05975 | -0.54555 | 3009 ft | 204 kts | 342° |
| 2026-05-06 21:38 | 51.07343 | -0.54856 | 3004 ft | 198 kts | 6° |
| 2026-05-06 21:39 | 51.08637 | -0.54292 | 3006 ft | 196 kts | 28° |
| 2026-05-06 21:39 | 51.09697 | -0.52954 | 3006 ft | 196 kts | 51° |
| 2026-05-06 21:39 | 51.10337 | -0.51042 | 3006 ft | 198 kts | 74° |
| 2026-05-06 21:39 | 51.10643 | -0.48909 | 3018 ft | 196 kts | 76° |
| 2026-05-06 21:40 | 51.10926 | -0.46889 | 3021 ft | 179 kts | 76° |
| 2026-05-06 21:40 | 51.11185 | -0.45043 | 2995 ft | 163 kts | 76° |
| 2026-05-06 21:40 | 51.11425 | -0.43342 | 2989 ft | 154 kts | 76° |
| 2026-05-06 21:40 | 51.11656 | -0.41700 | 2875 ft | 151 kts | 76° |
| 2026-05-06 21:41 | 51.11882 | -0.40087 | 2706 ft | 148 kts | 75° |
| 2026-05-06 21:41 | 51.12105 | -0.38494 | 2523 ft | 147 kts | 75° |
| 2026-05-06 21:41 | 51.12324 | -0.36932 | 2329 ft | 146 kts | 75° |
| 2026-05-06 21:41 | 51.12542 | -0.35375 | 2156 ft | 142 kts | 75° |
| 2026-05-06 21:42 | 51.12755 | -0.33850 | 1944 ft | 140 kts | 75° |
| 2026-05-06 21:42 | 51.12964 | -0.32349 | 1753 ft | 138 kts | 74° |
| 2026-05-06 21:42 | 51.13173 | -0.30854 | 1554 ft | 138 kts | 74° |
| 2026-05-06 21:42 | 51.13381 | -0.29363 | 1362 ft | 138 kts | 75° |
| 2026-05-06 21:43 | 51.13590 | -0.27862 | 1175 ft | 139 kts | 75° |
| 2026-05-06 21:43 | 51.13798 | -0.26362 | 970 ft | 139 kts | 76° |
| 2026-05-06 21:43 | 51.14004 | -0.24877 | 779 ft | 139 kts | 77° |
| 2026-05-06 21:43 | 51.14212 | -0.23379 | 589 ft | 138 kts | 78° |
| 2026-05-06 21:44 | 51.14419 | -0.21885 | 406 ft | 138 kts | 78° |
| 2026-05-06 21:44 | 51.14623 | -0.20394 | 236 ft | 137 kts | 78° |
| 2026-05-06 21:44 | 51.14800 | -0.19121 | 217 ft | 82 kts | 78° |
| 2026-05-06 21:44 | 51.14858 | -0.18709 | 214 ft | 1 kts | 76° |
| 2026-05-06 21:45 | 51.14894 | -0.18611 | 216 ft | 22 kts | 51° |
| 2026-05-06 21:45 | 51.14988 | -0.18426 | 205 ft | 18 kts | 52° |
| 2026-05-06 21:45 | 51.15065 | -0.18271 | 210 ft | 1 kts | 51° |
| 2026-05-06 21:46 | 51.15074 | -0.18254 | 210 ft | 6 kts | 51° |
| 2026-05-06 21:46 | 51.15103 | -0.18205 | 214 ft | 6 kts | 36° |
| 2026-05-06 21:46 | 51.15152 | -0.18198 | 207 ft | 8 kts | 348° |
| 2026-05-06 21:47 | 51.15200 | -0.18182 | 205 ft | 9 kts | 51° |
| 2026-05-06 21:47 | 51.15212 | -0.18081 | 205 ft | 11 kts | 76° |
| 2026-05-06 21:47 | 51.15232 | -0.17951 | 214 ft | 13 kts | 77° |
| 2026-05-06 21:47 | 51.15251 | -0.17826 | 208 ft | 12 kts | 77° |
| 2026-05-06 21:48 | 51.15270 | -0.17679 | 206 ft | 12 kts | 77° |
| 2026-05-06 21:48 | 51.15291 | -0.17538 | 213 ft | 14 kts | 78° |
| 2026-05-06 21:48 | 51.15302 | -0.17415 | 214 ft | 10 kts | 85° |
| 2026-05-06 21:48 | 51.15306 | -0.17350 | 213 ft | 1 kts | 84° |
| 2026-05-06 21:49 | 51.15314 | -0.17270 | 205 ft | 10 kts | 66° |
| 2026-05-06 21:49 | 51.15377 | -0.17227 | 213 ft | 10 kts | 56° |
| 2026-05-06 21:49 | 51.15410 | -0.17113 | 210 ft | 13 kts | 73° |
| 2026-05-06 21:49 | 51.15428 | -0.16977 | 205 ft | 11 kts | 77° |
| 2026-05-06 21:50 | 51.15455 | -0.16892 | 210 ft | 8 kts | 11° |
| 2026-05-06 21:50 | 51.15485 | -0.16903 | 210 ft | 1 kts | 347° |
| 2026-05-06 21:50 | 51.15490 | -0.16905 | 214 ft | 0 kts | 347° |
| 2026-05-06 21:50 | 51.15492 | -0.16905 | 213 ft | 0 kts | 347° |